Time;durP1;ratioP1;P1;durP2;ratioP2;P2;SDS_P1;SDS_P2;PMS_P1;PMS_P2;Temp;Humidity;BMP_temperature;BMP_pressure;BME280_temperature;BME280_humidity;BME280_pressure;Samples;Min_cycle;Max_cycle;Signal;HPM_P1;HPM_P2
2024/01/19 00:01:03;;;;;;;;;;;;;;;;;;5075090;28;19924;-80
2024/01/19 00:03:30;;;;;;;;;;;;;;;;;;5071908;28;19925;-81
2024/01/19 00:05:57;;;;;;;;;;;;;;;;;;5069977;28;20001;-80
2024/01/19 00:08:25;;;;;;;;;;;;;;;;;;5075799;28;19988;-81
2024/01/19 00:10:52;;;;;;;;;;;;;;;;;;5075393;28;20042;-81
2024/01/19 00:13:19;;;;;;;;;;;;;;;;;;5075984;28;19925;-79
2024/01/19 00:15:46;;;;;;;;;;;;;;;;;;5075059;28;19924;-81
2024/01/19 00:18:13;;;;;;;;;;;;;;;;;;5075170;28;19924;-80
2024/01/19 00:20:40;;;;;;;;;;;;;;;;;;5075109;28;19928;-80
2024/01/19 00:23:07;;;;;;;;;;;;;;;;;;5075384;28;19925;-79
2024/01/19 00:25:34;;;;;;;;;;;;;;;;;;5075978;28;19929;-77
2024/01/19 00:28:01;;;;;;;;;;;;;;;;;;5077792;28;19932;-79
2024/01/19 00:30:28;;;;;;;;;;;;;;;;;;5076229;28;19971;-78
2024/01/19 00:32:55;;;;;;;;;;;;;;;;;;5074562;28;19978;-78
2024/01/19 00:35:22;;;;;;;;;;;;;;;;;;5074816;28;19985;-78
2024/01/19 00:37:49;;;;;;;;;;;;;;;;;;5074271;28;20447;-78
2024/01/19 00:40:16;;;;;;;;;;;;;;;;;;5074537;28;19970;-76
2024/01/19 00:42:43;;;;;;;;;;;;;;;;;;5074521;28;19924;-75
2024/01/19 00:45:10;;;;;;;;;;;;;;;;;;5074499;28;19997;-77
2024/01/19 00:47:37;;;;;;;;;;;;;;;;;;5074100;28;19978;-78
2024/01/19 00:50:04;;;;;;;;;;;;;;;;;;5074304;28;20314;-77
2024/01/19 00:52:31;;;;;;;;;;;;;;;;;;5074288;28;19924;-77
2024/01/19 00:54:59;;;;;;;;;;;;;;;;;;5074211;28;20021;-77
2024/01/19 00:57:26;;;;;;;;;;;;;;;;;;5073620;28;19925;-78
2024/01/19 00:59:54;;;;;;;;;;;;;;;;;;5079374;28;19924;-77
2024/01/19 01:02:21;;;;;;;;;;;;;;;;;;5082881;28;20276;-76
2024/01/19 01:04:48;;;;;;;;;;;;;;;;;;5073535;28;19925;-78
2024/01/19 01:07:16;;;;;;;;;;;;;;;;;;5074273;28;19924;-78
2024/01/19 01:09:43;;;;;;;;;;;;;;;;;;5074373;28;19931;-78
2024/01/19 01:12:10;;;;;;;;;;;;;;;;;;5075981;28;19932;-77
2024/01/19 01:14:37;;;;;;;;;;;;;;;;;;5076073;28;19999;-78
2024/01/19 01:17:04;;;;;;;;;;;;;;;;;;5078887;28;19924;-78
2024/01/19 01:19:31;;;;;;;;;;;;;;;;;;5078546;28;19924;-77
2024/01/19 01:21:59;;;;;;;;;;;;;;;;;;5077671;28;19986;-77
2024/01/19 01:24:26;;;;;;;;;;;;;;;;;;5077563;28;19931;-78
2024/01/19 01:26:53;;;;;;;;;;;;;;;;;;5078019;28;19947;-77
2024/01/19 01:29:20;;;;;;;;;;;;;;;;;;5078151;28;19978;-77
2024/01/19 01:31:48;;;;;;;;;;;;;;;;;;5077637;28;19924;-77
2024/01/19 01:34:15;;;;;;;;;;;;;;;;;;5077757;28;20340;-77
2024/01/19 01:36:43;;;;;;;;;;;;;;;;;;5077456;28;19924;-80
2024/01/19 01:39:11;;;;;;;;;;;;;;;;;;5077976;28;19952;-79
2024/01/19 01:41:41;;;;;;;;;;;;;;;;;;5077715;28;19924;-78
2024/01/19 01:44:08;;;;;;;;;;;;;;;;;;5078048;28;19956;-79
2024/01/19 01:46:35;;;;;;;;;;;;;;;;;;5078214;28;19928;-81
2024/01/19 01:49:03;;;;;;;;;;;;;;;;;;5080319;28;19928;-80
2024/01/19 01:51:31;;;;;;;;;;;;;;;;;;5096981;28;19946;-79
2024/01/19 01:53:58;;;;;;;;;;;;;;;;;;5098646;28;19924;-80
2024/01/19 01:56:25;;;;;;;;;;;;;;;;;;5058479;28;20337;-79
2024/01/19 01:58:52;;;;;;;;;;;;;;;;;;5077896;28;19928;-80
2024/01/19 02:01:19;;;;;;;;;;;;;;;;;;5077623;28;20341;-80
2024/01/19 02:03:46;;;;;;;;;;;;;;;;;;5077142;28;19925;-78
2024/01/19 02:06:13;;;;;;;;;;;;;;;;;;5077409;28;19925;-78
2024/01/19 02:08:40;;;;;;;;;;;;;;;;;;5080278;28;19925;-78
2024/01/19 02:11:08;;;;;;;;;;;;;;;;;;5077438;28;20264;-79
2024/01/19 02:13:35;;;;;;;;;;;;;;;;;;5077127;28;20337;-78
2024/01/19 02:16:02;;;;;;;;;;;;;;;;;;5076782;28;19924;-78
2024/01/19 02:18:29;;;;;;;;;;;;;;;;;;5077361;28;19924;-77
2024/01/19 02:20:56;;;;;;;;;;;;;;;;;;5077791;28;19924;-78
2024/01/19 02:23:23;;;;;;;;;;;;;;;;;;5076611;28;20295;-77
2024/01/19 02:25:50;;;;;;;;;;;;;;;;;;5084210;28;19986;-78
2024/01/19 02:28:17;;;;;;;;;;;;;;;;;;5076570;28;19925;-79
2024/01/19 02:30:44;;;;;;;;;;;;;;;;;;5076918;28;19925;-78
2024/01/19 02:33:11;;;;;;;;;;;;;;;;;;5076504;28;19928;-78
2024/01/19 02:35:38;;;;;;;;;;;;;;;;;;5075765;28;19960;-81
2024/01/19 02:38:05;;;;;;;;;;;;;;;;;;5078808;28;20389;-78
2024/01/19 02:40:32;;;;;;;;;;;;;;;;;;5078305;28;19924;-78
2024/01/19 02:42:59;;;;;;;;;;;;;;;;;;5077733;28;19925;-78
2024/01/19 02:45:26;;;;;;;;;;;;;;;;;;5075532;28;19924;-78
2024/01/19 02:47:53;;;;;;;;;;;;;;;;;;5075580;28;20371;-79
2024/01/19 02:50:20;;;;;;;;;;;;;;;;;;5075510;28;19970;-80
2024/01/19 02:52:47;;;;;;;;;;;;;;;;;;5076006;28;19931;-81
2024/01/19 02:55:14;;;;;;;;;;;;;;;;;;5075605;28;20437;-80
2024/01/19 02:57:41;;;;;;;;;;;;;;;;;;5075767;28;19928;-78
2024/01/19 03:00:08;;;;;;;;;;;;;;;;;;5076396;28;19932;-81
2024/01/19 03:02:35;;;;;;;;;;;;;;;;;;5075404;28;20018;-80
2024/01/19 03:05:02;;;;;;;;;;;;;;;;;;5075898;28;19936;-79
2024/01/19 03:07:30;;;;;;;;;;;;;;;;;;5075435;28;20449;-79
2024/01/19 03:09:57;;;;;;;;;;;;;;;;;;5075649;28;20343;-80
2024/01/19 03:12:24;;;;;;;;;;;;;;;;;;5075514;28;20276;-79
2024/01/19 03:14:51;;;;;;;;;;;;;;;;;;5075506;28;19925;-79
2024/01/19 03:17:19;;;;;;;;;;;;;;;;;;5088680;28;19967;-77
2024/01/19 03:19:46;;;;;;;;;;;;;;;;;;5075518;28;19924;-76
2024/01/19 03:22:13;;;;;;;;;;;;;;;;;;5088099;28;20013;-75
2024/01/19 03:24:40;;;;;;;;;;;;;;;;;;5094538;28;19924;-77
2024/01/19 03:27:07;;;;;;;;;;;;;;;;;;5094734;28;19950;-77
2024/01/19 03:29:34;;;;;;;;;;;;;;;;;;5072777;28;19925;-76
2024/01/19 03:32:01;;;;;;;;;;;;;;;;;;5074096;28;19999;-77
2024/01/19 03:34:28;;;;;;;;;;;;;;;;;;5074579;28;20368;-76
2024/01/19 03:36:55;;;;;;;;;;;;;;;;;;5073854;28;19986;-77
2024/01/19 03:39:23;;;;;;;;;;;;;;;;;;5073740;28;19924;-77
2024/01/19 03:41:50;;;;;;;;;;;;;;;;;;5074700;28;19961;-78
2024/01/19 03:44:17;;;;;;;;;;;;;;;;;;5074799;28;19924;-77
2024/01/19 03:46:44;;;;;;;;;;;;;;;;;;5074210;28;19924;-76
2024/01/19 03:49:11;;;;;;;;;;;;;;;;;;5073546;28;20642;-76
2024/01/19 03:51:38;;;;;;;;;;;;;;;;;;5054108;28;20047;-81
2024/01/19 03:54:05;;;;;;;;;;;;;;;;;;5054270;28;19936;-77
2024/01/19 03:56:32;;;;;;;;;;;;;;;;;;5054134;28;20414;-75
2024/01/19 03:58:59;;;;;;;;;;;;;;;;;;5067605;28;20453;-77
2024/01/19 04:01:26;;;;;;;;;;;;;;;;;;5073660;28;19950;-77
2024/01/19 04:03:53;;;;;;;;;;;;;;;;;;5072952;28;19981;-77
2024/01/19 04:06:20;;;;;;;;;;;;;;;;;;5074462;28;19970;-78
2024/01/19 04:08:47;;;;;;;;;;;;;;;;;;5093554;28;19986;-76
2024/01/19 04:11:14;;;;;;;;;;;;;;;;;;5093839;28;19924;-77
2024/01/19 04:13:41;;;;;;;;;;;;;;;;;;5094192;28;20364;-77
2024/01/19 04:16:08;;;;;;;;;;;;;;;;;;5080681;28;20398;-76
2024/01/19 04:18:37;;;;;;;;;;;;;;;;;;5072400;28;20550;-74
2024/01/19 04:21:04;;;;;;;;;;;;;;;;;;5073552;28;20019;-77
2024/01/19 04:23:31;;;;;;;;;;;;;;;;;;5078592;28;19947;-76
2024/01/19 04:25:58;;;;;;;;;;;;;;;;;;5095503;28;20379;-78
2024/01/19 04:28:25;;;;;;;;;;;;;;;;;;5092637;28;19989;-76
2024/01/19 04:30:52;;;;;;;;;;;;;;;;;;5073726;28;19924;-78
2024/01/19 04:33:19;;;;;;;;;;;;;;;;;;5072841;28;19925;-75
2024/01/19 04:35:46;;;;;;;;;;;;;;;;;;5072971;28;19954;-76
2024/01/19 04:38:13;;;;;;;;;;;;;;;;;;5073499;28;19985;-78
2024/01/19 04:40:40;;;;;;;;;;;;;;;;;;5077434;28;20000;-76
2024/01/19 04:43:07;;;;;;;;;;;;;;;;;;5093968;28;19977;-77
2024/01/19 04:45:34;;;;;;;;;;;;;;;;;;5075347;28;19986;-76
2024/01/19 04:48:01;;;;;;;;;;;;;;;;;;5074321;28;19974;-76
2024/01/19 04:50:28;;;;;;;;;;;;;;;;;;5074427;28;19978;-77
2024/01/19 04:52:55;;;;;;;;;;;;;;;;;;5074486;28;19924;-81
2024/01/19 04:55:22;;;;;;;;;;;;;;;;;;5074565;28;19940;-79
2024/01/19 04:57:50;;;;;;;;;;;;;;;;;;5079966;28;20295;-78
2024/01/19 05:00:17;;;;;;;;;;;;;;;;;;5076946;28;19924;-78
2024/01/19 05:02:44;;;;;;;;;;;;;;;;;;5074370;28;19924;-80
2024/01/19 05:05:11;;;;;;;;;;;;;;;;;;5073553;28;19929;-84
2024/01/19 05:07:38;;;;;;;;;;;;;;;;;;5074292;28;20339;-78
2024/01/19 05:10:05;;;;;;;;;;;;;;;;;;5073873;28;19925;-80
2024/01/19 05:12:32;;;;;;;;;;;;;;;;;;5073256;28;19939;-81
2024/01/19 05:14:59;;;;;;;;;;;;;;;;;;5073858;28;19924;-78
2024/01/19 05:17:26;;;;;;;;;;;;;;;;;;5065123;28;20402;-82
2024/01/19 05:19:54;;;;;;;;;;;;;;;;;;5068514;28;19924;-75
2024/01/19 05:22:21;;;;;;;;;;;;;;;;;;5071871;28;19970;-75
2024/01/19 05:24:48;;;;;;;;;;;;;;;;;;5071917;28;19928;-76
2024/01/19 05:27:15;;;;;;;;;;;;;;;;;;5071561;28;19978;-75
2024/01/19 05:29:42;;;;;;;;;;;;;;;;;;5071559;28;19924;-75
2024/01/19 05:32:09;;;;;;;;;;;;;;;;;;5071962;28;19932;-75
2024/01/19 05:34:36;;;;;;;;;;;;;;;;;;5071328;28;19928;-74
2024/01/19 05:37:03;;;;;;;;;;;;;;;;;;5071652;28;19932;-75
2024/01/19 05:39:31;;;;;;;;;;;;;;;;;;5072230;28;19978;-75
2024/01/19 05:41:58;;;;;;;;;;;;;;;;;;5071909;28;20072;-74
2024/01/19 05:44:25;;;;;;;;;;;;;;;;;;5071596;28;19947;-74
2024/01/19 05:46:52;;;;;;;;;;;;;;;;;;5070746;28;20295;-76
2024/01/19 05:49:19;;;;;;;;;;;;;;;;;;5072112;28;20609;-75
2024/01/19 05:51:46;;;;;;;;;;;;;;;;;;5071144;28;20451;-76
2024/01/19 05:54:13;;;;;;;;;;;;;;;;;;5072144;28;19935;-76
2024/01/19 05:56:40;;;;;;;;;;;;;;;;;;5071675;28;19928;-75
2024/01/19 05:59:07;;;;;;;;;;;;;;;;;;5070626;28;19932;-74
2024/01/19 06:01:34;;;;;;;;;;;;;;;;;;5073222;28;19978;-75
2024/01/19 06:04:02;;;;;;;;;;;;;;;;;;5074277;28;19932;-74
2024/01/19 06:06:29;;;;;;;;;;;;;;;;;;5077126;28;19924;-74
2024/01/19 06:08:56;;;;;;;;;;;;;;;;;;5075845;28;20050;-74
2024/01/19 06:11:23;;;;;;;;;;;;;;;;;;5075320;28;19924;-74
2024/01/19 06:13:51;;;;;;;;;;;;;;;;;;5074761;28;19924;-74
2024/01/19 06:16:18;;;;;;;;;;;;;;;;;;5073092;28;19931;-73
2024/01/19 06:18:45;;;;;;;;;;;;;;;;;;5073514;28;19994;-73
2024/01/19 06:21:12;;;;;;;;;;;;;;;;;;5072641;28;20029;-74
2024/01/19 06:23:39;;;;;;;;;;;;;;;;;;5074153;28;20359;-74
2024/01/19 06:26:06;;;;;;;;;;;;;;;;;;5074764;28;19924;-73
2024/01/19 06:28:33;;;;;;;;;;;;;;;;;;5074632;28;19924;-74
2024/01/19 06:31:00;;;;;;;;;;;;;;;;;;5074870;28;19924;-72
2024/01/19 06:33:27;;;;;;;;;;;;;;;;;;5074842;28;20288;-73
2024/01/19 06:35:55;;;;;;;;;;;;;;;;;;5073387;28;19929;-73
2024/01/19 06:38:22;;;;;;;;;;;;;;;;;;5074493;28;19928;-74
2024/01/19 06:40:49;;;;;;;;;;;;;;;;;;5075143;28;19978;-73
2024/01/19 06:43:16;;;;;;;;;;;;;;;;;;5074705;28;19978;-74
2024/01/19 06:45:43;;;;;;;;;;;;;;;;;;5073892;28;19928;-73
2024/01/19 06:48:10;;;;;;;;;;;;;;;;;;5074172;28;19978;-74
2024/01/19 06:50:37;;;;;;;;;;;;;;;;;;5074220;28;19978;-73
2024/01/19 06:53:06;;;;;;;;;;;;;;;;;;5076317;28;19929;-74
2024/01/19 06:55:33;;;;;;;;;;;;;;;;;;5077423;28;19947;-74
2024/01/19 06:58:00;;;;;;;;;;;;;;;;;;5076598;28;19925;-73
2024/01/19 07:00:27;;;;;;;;;;;;;;;;;;5074977;28;19932;-73
2024/01/19 07:02:54;;;;;;;;;;;;;;;;;;5074116;28;19978;-73
2024/01/19 07:05:21;;;;;;;;;;;;;;;;;;5073920;28;19928;-73
2024/01/19 07:07:48;;;;;;;;;;;;;;;;;;5073238;28;19929;-73
2024/01/19 07:10:15;;;;;;;;;;;;;;;;;;5073646;28;19928;-74
2024/01/19 07:12:42;;;;;;;;;;;;;;;;;;5073083;28;19947;-76
2024/01/19 07:15:09;;;;;;;;;;;;;;;;;;5074806;28;20291;-73
2024/01/19 07:17:36;;;;;;;;;;;;;;;;;;5073959;28;20376;-73
2024/01/19 07:20:05;;;;;;;;;;;;;;;;;;5072302;28;19990;-73
2024/01/19 07:22:32;;;;;;;;;;;;;;;;;;5072857;28;20391;-71
2024/01/19 07:24:59;;;;;;;;;;;;;;;;;;5072863;28;20396;-74
2024/01/19 07:27:26;;;;;;;;;;;;;;;;;;5073564;28;20435;-72
2024/01/19 07:29:53;;;;;;;;;;;;;;;;;;5073090;28;20012;-72
2024/01/19 07:32:24;;;;;;;;;;;;;;;;;;5073787;28;20399;-72
2024/01/19 07:34:51;;;;;;;;;;;;;;;;;;5073490;28;19924;-72
2024/01/19 07:37:18;;;;;;;;;;;;;;;;;;5071127;28;19929;-72
2024/01/19 07:39:45;;;;;;;;;;;;;;;;;;5071304;28;19924;-70
2024/01/19 07:42:12;;;;;;;;;;;;;;;;;;5063067;28;19924;-69
2024/01/19 07:44:39;;;;;;;;;;;;;;;;;;5055772;28;20438;-70
2024/01/19 07:47:06;;;;;;;;;;;;;;;;;;5063986;28;19924;-71
2024/01/19 07:49:33;;;;;;;;;;;;;;;;;;5072789;28;19929;-73
2024/01/19 07:52:00;;;;;;;;;;;;;;;;;;5071471;28;19978;-72
2024/01/19 07:54:27;;;;;;;;;;;;;;;;;;5057971;28;19924;-72
2024/01/19 07:56:55;;;;;;;;;;;;;;;;;;5063589;28;20001;-72
2024/01/19 07:59:22;;;;;;;;;;;;;;;;;;5070636;28;19925;-73
2024/01/19 08:01:49;;;;;;;;;;;;;;;;;;5069279;28;19925;-72
2024/01/19 08:04:16;;;;;;;;;;;;;;;;;;5071649;28;19967;-73
2024/01/19 08:06:43;;;;;;;;;;;;;;;;;;5069740;28;19924;-71
2024/01/19 08:09:11;;;;;;;;;;;;;;;;;;5056716;28;20457;-72
2024/01/19 08:11:39;;;;;;;;;;;;;;;;;;5062724;28;20379;-72
2024/01/19 08:14:07;;;;;;;;;;;;;;;;;;5067863;28;19931;-73
2024/01/19 08:16:34;;;;;;;;;;;;;;;;;;5059149;28;19935;-73
2024/01/19 08:19:02;;;;;;;;;;;;;;;;;;5066577;28;20022;-73
2024/01/19 08:21:29;;;;;;;;;;;;;;;;;;5067024;28;19983;-73
2024/01/19 08:23:57;;;;;;;;;;;;;;;;;;5075178;28;20323;-75
2024/01/19 08:26:24;;;;;;;;;;;;;;;;;;5068132;28;19947;-73
2024/01/19 08:28:51;;;;;;;;;;;;;;;;;;5060655;28;19947;-74
2024/01/19 08:31:18;;;;;;;;;;;;;;;;;;5069103;28;19925;-74
2024/01/19 08:33:45;;;;;;;;;;;;;;;;;;5070436;28;20011;-73
2024/01/19 08:36:12;;;;;;;;;;;;;;;;;;5064047;28;20345;-74
2024/01/19 08:38:39;;;;;;;;;;;;;;;;;;5071134;28;19925;-74
2024/01/19 08:41:06;;;;;;;;;;;;;;;;;;5067476;28;19929;-74
2024/01/19 08:43:33;;;;;;;;;;;;;;;;;;5068450;28;20029;-74
2024/01/19 08:46:00;;;;;;;;;;;;;;;;;;5056825;28;19925;-72
2024/01/19 08:48:27;;;;;;;;;;;;;;;;;;5059776;28;20013;-71
2024/01/19 08:50:56;;;;;;;;;;;;;;;;;;5070268;28;19928;-72
2024/01/19 08:53:23;;;;;;;;;;;;;;;;;;5067829;28;19925;-73
2024/01/19 08:55:50;;;;;;;;;;;;;;;;;;5063791;28;19986;-72
2024/01/19 08:58:17;;;;;;;;;;;;;;;;;;5077340;28;20656;-73
2024/01/19 09:00:44;;;;;;;;;;;;;;;;;;5070658;28;20014;-73
2024/01/19 09:03:11;;;;;;;;;;;;;;;;;;5068860;28;19994;-74
2024/01/19 09:05:38;;;;;;;;;;;;;;;;;;5068235;28;20391;-76
2024/01/19 09:08:05;;;;;;;;;;;;;;;;;;5059327;28;19983;-74
2024/01/19 09:10:34;;;;;;;;;;;;;;;;;;5068190;28;20303;-74
2024/01/19 09:13:01;;;;;;;;;;;;;;;;;;5070624;28;20363;-74
2024/01/19 09:15:28;;;;;;;;;;;;;;;;;;5074227;28;19970;-74
2024/01/19 09:17:55;;;;;;;;;;;;;;;;;;5072494;28;20420;-75
2024/01/19 09:20:24;;;;;;;;;;;;;;;;;;5071468;28;19975;-74
2024/01/19 09:22:51;;;;;;;;;;;;;;;;;;5068299;28;19924;-74
2024/01/19 09:25:18;;;;;;;;;;;;;;;;;;5056906;28;19931;-75
2024/01/19 09:27:45;;;;;;;;;;;;;;;;;;5061571;28;20003;-74
2024/01/19 09:30:13;;;;;;;;;;;;;;;;;;5064101;28;19924;-76
2024/01/19 09:32:40;;;;;;;;;;;;;;;;;;5050413;28;20019;-74
2024/01/19 09:35:07;;;;;;;;;;;;;;;;;;5062755;28;20375;-74
2024/01/19 09:37:34;;;;;;;;;;;;;;;;;;5065273;28;19966;-74
2024/01/19 09:40:01;;;;;;;;;;;;;;;;;;5069353;28;19940;-73
2024/01/19 09:42:28;;;;;;;;;;;;;;;;;;5074785;28;19957;-73
2024/01/19 09:44:55;;;;;;;;;;;;;;;;;;5073615;28;19937;-74
2024/01/19 09:47:22;;;;;;;;;;;;;;;;;;5067596;28;19928;-73
2024/01/19 09:49:49;;;;;;;;;;;;;;;;;;5063921;28;19929;-72
2024/01/19 09:52:16;;;;;;;;;;;;;;;;;;5070635;28;20465;-72
2024/01/19 09:54:43;;;;;;;;;;;;;;;;;;5072906;28;19978;-72
2024/01/19 09:57:10;;;;;;;;;;;;;;;;;;5073085;28;20298;-73
2024/01/19 09:59:38;;;;;;;;;;;;;;;;;;5068052;28;19975;-73
2024/01/19 10:02:05;;;;;;;;;;;;;;;;;;5056163;28;19933;-73
2024/01/19 10:04:32;;;;;;;;;;;;;;;;;;5062159;28;20303;-74
2024/01/19 10:07:01;;;;;;;;;;;;;;;;;;5067480;28;20375;-73
2024/01/19 10:09:28;;;;;;;;;;;;;;;;;;5074624;28;19935;-74
2024/01/19 10:11:55;;;;;;;;;;;;;;;;;;5074111;28;19952;-73
2024/01/19 10:14:22;;;;;;;;;;;;;;;;;;5072004;28;19924;-72
2024/01/19 10:16:50;;;;;;;;;;;;;;;;;;5074794;28;19931;-73
2024/01/19 10:19:17;;;;;;;;;;;;;;;;;;5066722;28;19933;-73
2024/01/19 10:21:44;;;;;;;;;;;;;;;;;;5073278;28;19924;-77
2024/01/19 10:24:11;;;;;;;;;;;;;;;;;;5064164;28;20002;-75
2024/01/19 10:26:38;;;;;;;;;;;;;;;;;;5065789;28;19979;-76
2024/01/19 10:29:05;;;;;;;;;;;;;;;;;;5071159;28;19951;-76
2024/01/19 10:31:32;;;;;;;;;;;;;;;;;;5069716;28;20324;-76
2024/01/19 10:34:03;;;;;;;;;;;;;;;;;;5074606;28;19932;-77
2024/01/19 10:36:30;;;;;;;;;;;;;;;;;;5071664;28;19929;-75
2024/01/19 10:38:57;;;;;;;;;;;;;;;;;;5063320;28;19925;-77
2024/01/19 10:41:25;;;;;;;;;;;;;;;;;;5065918;28;19970;-77
2024/01/19 10:43:52;;;;;;;;;;;;;;;;;;5071786;28;19929;-79
2024/01/19 10:46:19;;;;;;;;;;;;;;;;;;5061205;28;20752;-75
2024/01/19 10:48:46;;;;;;;;;;;;;;;;;;5071185;28;19968;-76
2024/01/19 10:51:14;;;;;;;;;;;;;;;;;;5071364;28;20354;-73
2024/01/19 10:53:41;;;;;;;;;;;;;;;;;;5072371;28;20056;-74
2024/01/19 10:56:08;;;;;;;;;;;;;;;;;;5073142;28;19978;-72
2024/01/19 10:58:35;;;;;;;;;;;;;;;;;;5069247;28;20244;-72
2024/01/19 11:01:02;;;;;;;;;;;;;;;;;;5070483;28;19928;-72
2024/01/19 11:03:29;;;;;;;;;;;;;;;;;;5071035;28;20024;-74
2024/01/19 11:05:56;;;;;;;;;;;;;;;;;;5065635;28;20608;-72
2024/01/19 11:08:23;;;;;;;;;;;;;;;;;;5071372;28;19924;-74
2024/01/19 11:10:50;;;;;;;;;;;;;;;;;;5065301;28;20012;-71
2024/01/19 11:13:17;;;;;;;;;;;;;;;;;;5072536;28;19931;-69
2024/01/19 11:15:44;;;;;;;;;;;;;;;;;;5068845;28;19970;-72
2024/01/19 11:18:11;;;;;;;;;;;;;;;;;;5069743;28;20333;-72
2024/01/19 11:20:38;;;;;;;;;;;;;;;;;;5060770;28;19939;-72
2024/01/19 11:23:05;;;;;;;;;;;;;;;;;;5071327;28;20229;-74
2024/01/19 11:25:33;;;;;;;;;;;;;;;;;;5062460;28;20387;-73
2024/01/19 11:28:00;;;;;;;;;;;;;;;;;;5069762;28;20049;-72
2024/01/19 11:30:27;;;;;;;;;;;;;;;;;;5071412;28;20053;-73
2024/01/19 11:32:54;;;;;;;;;;;;;;;;;;5066218;28;20013;-73
2024/01/19 11:35:21;;;;;;;;;;;;;;;;;;5065343;28;20230;-73
2024/01/19 11:37:48;;;;;;;;;;;;;;;;;;5072380;28;20426;-74
2024/01/19 11:40:15;;;;;;;;;;;;;;;;;;5068651;28;19985;-74
2024/01/19 11:42:42;;;;;;;;;;;;;;;;;;5071477;28;19978;-73
2024/01/19 11:45:09;;;;;;;;;;;;;;;;;;5072631;28;20007;-73
2024/01/19 11:47:35;;;;;;;;;;;;;;;;;;5071154;28;20007;-73
2024/01/19 11:50:02;;;;;;;;;;;;;;;;;;5061791;28;19974;-72
2024/01/19 11:52:30;;;;;;;;;;;;;;;;;;5076662;28;20332;-73
2024/01/19 11:54:57;;;;;;;;;;;;;;;;;;5074320;28;19931;-72
2024/01/19 11:57:25;;;;;;;;;;;;;;;;;;5071886;28;19924;-71
2024/01/19 11:59:52;;;;;;;;;;;;;;;;;;5071357;28;19951;-72
2024/01/19 12:02:20;;;;;;;;;;;;;;;;;;5070358;28;19948;-73
2024/01/19 12:04:47;;;;;;;;;;;;;;;;;;5072341;28;20291;-73
2024/01/19 12:07:14;;;;;;;;;;;;;;;;;;5068458;28;19928;-73
2024/01/19 12:09:41;;;;;;;;;;;;;;;;;;5068900;28;20000;-73
2024/01/19 12:12:08;;;;;;;;;;;;;;;;;;5064977;28;19986;-73
2024/01/19 12:14:35;;;;;;;;;;;;;;;;;;5071643;28;19928;-74
2024/01/19 12:17:02;;;;;;;;;;;;;;;;;;5070867;28;19978;-73
2024/01/19 12:19:30;;;;;;;;;;;;;;;;;;5072050;28;20013;-73
2024/01/19 12:21:57;;;;;;;;;;;;;;;;;;5070749;28;19929;-73
2024/01/19 12:24:24;;;;;;;;;;;;;;;;;;5072481;28;19954;-73
2024/01/19 12:26:51;;;;;;;;;;;;;;;;;;5064340;28;20016;-73
2024/01/19 12:29:18;;;;;;;;;;;;;;;;;;5072740;28;19989;-73
2024/01/19 12:31:45;;;;;;;;;;;;;;;;;;5071063;28;19924;-72
2024/01/19 12:34:12;;;;;;;;;;;;;;;;;;5074750;28;19986;-73
2024/01/19 12:36:39;;;;;;;;;;;;;;;;;;5063890;28;20500;-72
2024/01/19 12:39:11;;;;;;;;;;;;;;;;;;5070566;28;20457;-73
2024/01/19 12:41:38;;;;;;;;;;;;;;;;;;5070714;28;20928;-74
2024/01/19 12:44:05;;;;;;;;;;;;;;;;;;5066971;28;19978;-73
2024/01/19 12:46:32;;;;;;;;;;;;;;;;;;5062234;28;19932;-72
2024/01/19 12:49:02;;;;;;;;;;;;;;;;;;5065455;28;20272;-72
2024/01/19 12:51:29;;;;;;;;;;;;;;;;;;5068577;28;19924;-73
2024/01/19 12:53:56;;;;;;;;;;;;;;;;;;5076873;28;19924;-72
2024/01/19 12:56:25;;;;;;;;;;;;;;;;;;5066567;28;19929;-73
2024/01/19 12:58:52;;;;;;;;;;;;;;;;;;5064914;28;19955;-73
2024/01/19 13:01:20;;;;;;;;;;;;;;;;;;5070006;28;20450;-73
2024/01/19 13:03:47;;;;;;;;;;;;;;;;;;5065993;28;20008;-73
2024/01/19 13:06:14;;;;;;;;;;;;;;;;;;5062954;28;20391;-78
2024/01/19 13:08:42;;;;;;;;;;;;;;;;;;5077759;28;19924;-72
2024/01/19 13:11:09;;;;;;;;;;;;;;;;;;5076048;28;19924;-72
2024/01/19 13:13:36;;;;;;;;;;;;;;;;;;5072740;28;20379;-74
2024/01/19 13:16:03;;;;;;;;;;;;;;;;;;5071050;28;19932;-73
2024/01/19 13:18:30;;;;;;;;;;;;;;;;;;5070117;28;20355;-73
2024/01/19 13:20:57;;;;;;;;;;;;;;;;;;5072906;28;19928;-73
2024/01/19 13:23:25;;;;;;;;;;;;;;;;;;5077795;28;19931;-73
2024/01/19 13:25:52;;;;;;;;;;;;;;;;;;5076555;28;20302;-74
2024/01/19 13:28:19;;;;;;;;;;;;;;;;;;5084266;28;19931;-73
2024/01/19 13:30:47;;;;;;;;;;;;;;;;;;5068935;28;20284;-74
2024/01/19 13:33:15;;;;;;;;;;;;;;;;;;5074252;28;19924;-73
2024/01/19 13:35:43;;;;;;;;;;;;;;;;;;5066975;28;19924;-73
2024/01/19 13:38:11;;;;;;;;;;;;;;;;;;5064321;28;19968;-73
2024/01/19 13:40:38;;;;;;;;;;;;;;;;;;5071773;28;19925;-74
2024/01/19 13:43:05;;;;;;;;;;;;;;;;;;5064000;28;19962;-72
2024/01/19 13:45:32;;;;;;;;;;;;;;;;;;5078163;28;19928;-73
2024/01/19 13:47:59;;;;;;;;;;;;;;;;;;5085099;28;20030;-72
2024/01/19 13:50:26;;;;;;;;;;;;;;;;;;5061079;28;19967;-72
2024/01/19 13:52:53;;;;;;;;;;;;;;;;;;5068803;28;19929;-73
2024/01/19 13:55:20;;;;;;;;;;;;;;;;;;5063864;28;20456;-73
2024/01/19 13:57:48;;;;;;;;;;;;;;;;;;5065264;28;20272;-72
2024/01/19 14:00:15;;;;;;;;;;;;;;;;;;5073882;28;20380;-73
2024/01/19 14:02:42;;;;;;;;;;;;;;;;;;5077720;28;19924;-72
2024/01/19 14:05:09;;;;;;;;;;;;;;;;;;5072639;28;19925;-71
2024/01/19 14:07:37;;;;;;;;;;;;;;;;;;5073209;28;19925;-71
2024/01/19 14:10:04;;;;;;;;;;;;;;;;;;5070902;28;19925;-76
2024/01/19 14:12:31;;;;;;;;;;;;;;;;;;5074673;28;19925;-76
2024/01/19 14:14:58;;;;;;;;;;;;;;;;;;5072114;28;19928;-76
2024/01/19 14:17:25;;;;;;;;;;;;;;;;;;5060493;28;19956;-75
2024/01/19 14:19:52;;;;;;;;;;;;;;;;;;5073489;28;19924;-78
2024/01/19 14:22:19;;;;;;;;;;;;;;;;;;5073564;28;19928;-74
2024/01/19 14:24:46;;;;;;;;;;;;;;;;;;5074455;28;19989;-76
2024/01/19 14:27:13;;;;;;;;;;;;;;;;;;5066757;28;19932;-72
2024/01/19 14:29:40;;;;;;;;;;;;;;;;;;5073063;28;19978;-73
2024/01/19 14:32:07;;;;;;;;;;;;;;;;;;5068505;28;19931;-74
2024/01/19 14:34:34;;;;;;;;;;;;;;;;;;5069881;28;19989;-74
2024/01/19 14:37:01;;;;;;;;;;;;;;;;;;5070328;28;19929;-73
2024/01/19 14:39:28;;;;;;;;;;;;;;;;;;5069550;28;22209;-72
2024/01/19 14:41:55;;;;;;;;;;;;;;;;;;5070168;28;19951;-67
2024/01/19 14:44:22;;;;;;;;;;;;;;;;;;5065566;28;19932;-67
2024/01/19 14:46:50;;;;;;;;;;;;;;;;;;5069453;28;20007;-68
2024/01/19 14:49:17;;;;;;;;;;;;;;;;;;5069017;28;19940;-73
2024/01/19 14:51:45;;;;;;;;;;;;;;;;;;5066524;28;20288;-73
2024/01/19 14:54:14;;;;;;;;;;;;;;;;;;5065580;28;19931;-72
2024/01/19 14:56:41;;;;;;;;;;;;;;;;;;5072316;28;20012;-73
2024/01/19 14:59:08;;;;;;;;;;;;;;;;;;5071627;28;20013;-73
2024/01/19 15:01:35;;;;;;;;;;;;;;;;;;5069848;28;20014;-73
2024/01/19 15:04:02;;;;;;;;;;;;;;;;;;5071248;28;20395;-73
2024/01/19 15:06:29;;;;;;;;;;;;;;;;;;5067527;28;19982;-72
2024/01/19 15:08:56;;;;;;;;;;;;;;;;;;5072643;28;19982;-72
2024/01/19 15:11:23;;;;;;;;;;;;;;;;;;5064511;28;20572;-72
2024/01/19 15:13:51;;;;;;;;;;;;;;;;;;5059569;28;19967;-73
2024/01/19 15:16:18;;;;;;;;;;;;;;;;;;5055322;28;19925;-73
2024/01/19 15:18:45;;;;;;;;;;;;;;;;;;5069464;28;19964;-72
2024/01/19 15:21:12;;;;;;;;;;;;;;;;;;5064577;28;20491;-73
2024/01/19 15:23:39;;;;;;;;;;;;;;;;;;5072278;28;19924;-73
2024/01/19 15:26:06;;;;;;;;;;;;;;;;;;5059926;28;19971;-73
2024/01/19 15:28:33;;;;;;;;;;;;;;;;;;5063859;28;20302;-73
2024/01/19 15:31:00;;;;;;;;;;;;;;;;;;5066627;28;19924;-74
2024/01/19 15:33:27;;;;;;;;;;;;;;;;;;5063824;28;19933;-70
2024/01/19 15:35:54;;;;;;;;;;;;;;;;;;5065786;28;20054;-75
2024/01/19 15:38:21;;;;;;;;;;;;;;;;;;5067091;28;19986;-74
2024/01/19 15:40:48;;;;;;;;;;;;;;;;;;5051249;28;19933;-72
2024/01/19 15:43:15;;;;;;;;;;;;;;;;;;5051315;28;19932;-73
2024/01/19 15:45:42;;;;;;;;;;;;;;;;;;5069655;28;19925;-72
2024/01/19 15:48:09;;;;;;;;;;;;;;;;;;5071602;28;20382;-73
2024/01/19 15:50:36;;;;;;;;;;;;;;;;;;5061398;28;20019;-72
2024/01/19 15:53:03;;;;;;;;;;;;;;;;;;5066959;28;19978;-73
2024/01/19 15:55:30;;;;;;;;;;;;;;;;;;5064865;28;19924;-73
2024/01/19 15:57:57;;;;;;;;;;;;;;;;;;5067014;28;19924;-73
2024/01/19 16:00:25;;;;;;;;;;;;;;;;;;5066042;28;19928;-74
2024/01/19 16:02:52;;;;;;;;;;;;;;;;;;5065426;28;19925;-73
2024/01/19 16:05:19;;;;;;;;;;;;;;;;;;5074572;28;19924;-72
2024/01/19 16:07:46;;;;;;;;;;;;;;;;;;5055077;28;20564;-73
2024/01/19 16:10:14;;;;;;;;;;;;;;;;;;5058501;28;19960;-73
2024/01/19 16:12:41;;;;;;;;;;;;;;;;;;5070623;28;20330;-73
2024/01/19 16:15:08;;;;;;;;;;;;;;;;;;5069640;28;20345;-74
2024/01/19 16:17:37;;;;;;;;;;;;;;;;;;5065162;28;20380;-74
2024/01/19 16:20:04;;;;;;;;;;;;;;;;;;5071107;28;20355;-74
2024/01/19 16:22:31;;;;;;;;;;;;;;;;;;5056723;28;20065;-72
2024/01/19 16:24:59;;;;;;;;;;;;;;;;;;5069171;28;19924;-73
2024/01/19 16:27:26;;;;;;;;;;;;;;;;;;5071645;28;19978;-73
2024/01/19 16:29:53;;;;;;;;;;;;;;;;;;5062996;28;19978;-73
2024/01/19 16:32:20;;;;;;;;;;;;;;;;;;5057884;28;19987;-73
2024/01/19 16:34:47;;;;;;;;;;;;;;;;;;5068124;28;20344;-73
2024/01/19 16:37:14;;;;;;;;;;;;;;;;;;5063498;28;19925;-72
2024/01/19 16:39:42;;;;;;;;;;;;;;;;;;5062776;28;19940;-72
2024/01/19 16:42:09;;;;;;;;;;;;;;;;;;5070683;28;19978;-72
2024/01/19 16:44:36;;;;;;;;;;;;;;;;;;5064777;28;20038;-73